sensor_id;sensor_type;location;lat;lon;timestamp;pressure;altitude;pressure_sealevel;temperature;humidity
36664;BME280;53333;51.976;20.144;2023-03-26T00:02:24;98939.81;;;8.82;63.09
36664;BME280;53333;51.976;20.144;2023-03-26T00:05:01;98939.81;;;8.82;63.12
36664;BME280;53333;51.976;20.144;2023-03-26T00:07:35;98942.50;;;8.82;63.12
36664;BME280;53333;51.976;20.144;2023-03-26T00:10:08;98935.25;;;8.84;63.13
36664;BME280;53333;51.976;20.144;2023-03-26T00:12:41;98936.03;;;8.86;63.05
36664;BME280;53333;51.976;20.144;2023-03-26T00:15:14;98939.47;;;8.88;63.01
36664;BME280;53333;51.976;20.144;2023-03-26T00:17:48;98926.91;;;8.90;63.07
36664;BME280;53333;51.976;20.144;2023-03-26T00:20:23;98932.13;;;8.91;63.09
36664;BME280;53333;51.976;20.144;2023-03-26T00:22:58;98931.09;;;8.94;62.88
36664;BME280;53333;51.976;20.144;2023-03-26T00:25:32;98932.03;;;8.93;62.89
36664;BME280;53333;51.976;20.144;2023-03-26T00:28:05;98931.94;;;8.95;62.91
36664;BME280;53333;51.976;20.144;2023-03-26T00:30:38;98919.50;;;8.95;63.01
36664;BME280;53333;51.976;20.144;2023-03-26T00:33:13;98926.53;;;8.96;62.96
36664;BME280;53333;51.976;20.144;2023-03-26T00:35:52;98924.63;;;8.98;63.06
36664;BME280;53333;51.976;20.144;2023-03-26T00:38:27;98930.91;;;8.97;63.07
36664;BME280;53333;51.976;20.144;2023-03-26T00:41:01;98916.75;;;8.97;63.23
36664;BME280;53333;51.976;20.144;2023-03-26T00:43:36;98911.28;;;8.98;63.23
36664;BME280;53333;51.976;20.144;2023-03-26T00:46:09;98912.09;;;9.00;63.13
36664;BME280;53333;51.976;20.144;2023-03-26T00:48:43;98916.34;;;9.03;63.16
36664;BME280;53333;51.976;20.144;2023-03-26T00:51:19;98911.88;;;9.03;63.15
36664;BME280;53333;51.976;20.144;2023-03-26T00:53:53;98914.47;;;9.05;63.28
36664;BME280;53333;51.976;20.144;2023-03-26T00:56:26;98912.66;;;9.05;63.24
36664;BME280;53333;51.976;20.144;2023-03-26T00:58:59;98912.53;;;9.07;63.21
36664;BME280;53333;51.976;20.144;2023-03-26T01:01:32;98906.47;;;9.19;62.84
36664;BME280;53333;51.976;20.144;2023-03-26T01:04:25;98907.69;;;9.14;62.98
36664;BME280;53333;51.976;20.144;2023-03-26T01:07:09;98905.41;;;9.07;63.18
36664;BME280;53333;51.976;20.144;2023-03-26T01:09:44;98901.06;;;9.06;63.36
36664;BME280;53333;51.976;20.144;2023-03-26T01:12:23;98908.16;;;9.06;63.38
36664;BME280;53333;51.976;20.144;2023-03-26T01:14:58;98896.56;;;9.07;63.75
36664;BME280;53333;51.976;20.144;2023-03-26T01:17:32;98897.41;;;9.07;63.57
36664;BME280;53333;51.976;20.144;2023-03-26T01:20:09;98892.28;;;9.04;63.69
36664;BME280;53333;51.976;20.144;2023-03-26T01:22:50;98884.38;;;9.03;63.91
36664;BME280;53333;51.976;20.144;2023-03-26T01:25:30;98880.13;;;9.00;64.13
36664;BME280;53333;51.976;20.144;2023-03-26T01:28:05;98881.91;;;9.00;64.21
36664;BME280;53333;51.976;20.144;2023-03-26T01:30:46;98881.06;;;8.99;64.40
36664;BME280;53333;51.976;20.144;2023-03-26T01:33:33;98875.72;;;8.99;64.44
36664;BME280;53333;51.976;20.144;2023-03-26T01:36:14;98872.41;;;8.96;64.38
36664;BME280;53333;51.976;20.144;2023-03-26T01:38:57;98871.47;;;8.97;64.55
36664;BME280;53333;51.976;20.144;2023-03-26T01:41:39;98875.91;;;8.96;64.61
36664;BME280;53333;51.976;20.144;2023-03-26T01:44:20;98870.03;;;8.91;64.74
36664;BME280;53333;51.976;20.144;2023-03-26T01:46:58;98870.13;;;8.89;64.69
36664;BME280;53333;51.976;20.144;2023-03-26T01:49:32;98861.47;;;8.86;64.84
36664;BME280;53333;51.976;20.144;2023-03-26T01:52:13;98861.47;;;8.86;64.72
36664;BME280;53333;51.976;20.144;2023-03-26T01:54:47;98870.50;;;8.83;64.92
36664;BME280;53333;51.976;20.144;2023-03-26T01:57:25;98868.13;;;8.93;64.36
36664;BME280;53333;51.976;20.144;2023-03-26T02:00:11;98861.84;;;8.80;64.65
36664;BME280;53333;51.976;20.144;2023-03-26T02:02:58;98856.72;;;8.77;64.77
36664;BME280;53333;51.976;20.144;2023-03-26T02:05:37;98848.91;;;8.73;64.91
36664;BME280;53333;51.976;20.144;2023-03-26T02:08:18;98856.91;;;8.73;64.93
36664;BME280;53333;51.976;20.144;2023-03-26T02:10:56;98847.09;;;8.74;64.91
36664;BME280;53333;51.976;20.144;2023-03-26T02:13:32;98841.69;;;8.76;64.76
36664;BME280;53333;51.976;20.144;2023-03-26T02:16:07;98839.81;;;8.78;64.90
36664;BME280;53333;51.976;20.144;2023-03-26T02:18:42;98843.41;;;8.77;64.82
36664;BME280;53333;51.976;20.144;2023-03-26T02:21:18;98840.94;;;8.73;64.97
36664;BME280;53333;51.976;20.144;2023-03-26T02:23:54;98839.22;;;8.72;64.98
36664;BME280;53333;51.976;20.144;2023-03-26T02:26:58;98845.59;;;8.70;65.01
36664;BME280;53333;51.976;20.144;2023-03-26T02:29:35;98837.06;;;8.65;65.17
36664;BME280;53333;51.976;20.144;2023-03-26T02:32:09;98836.16;;;8.64;65.11
36664;BME280;53333;51.976;20.144;2023-03-26T02:34:43;98836.44;;;8.60;65.26
36664;BME280;53333;51.976;20.144;2023-03-26T02:37:18;98837.59;;;8.56;65.39
36664;BME280;53333;51.976;20.144;2023-03-26T02:39:57;98834.06;;;8.55;65.30
36664;BME280;53333;51.976;20.144;2023-03-26T02:42:35;98843.13;;;8.52;65.36
36664;BME280;53333;51.976;20.144;2023-03-26T02:45:09;98837.97;;;8.49;65.22
36664;BME280;53333;51.976;20.144;2023-03-26T02:48:01;98833.94;;;8.42;65.23
36664;BME280;53333;51.976;20.144;2023-03-26T02:50:49;98837.19;;;8.33;65.27
36664;BME280;53333;51.976;20.144;2023-03-26T02:54:03;98839.41;;;8.25;65.30
36664;BME280;53333;51.976;20.144;2023-03-26T02:56:40;98838.94;;;8.18;65.31
36664;BME280;53333;51.976;20.144;2023-03-26T02:59:36;98837.34;;;8.15;65.34
36664;BME280;53333;51.976;20.144;2023-03-26T03:02:30;98843.59;;;8.14;65.48
36664;BME280;53333;51.976;20.144;2023-03-26T03:05:17;98840.00;;;8.15;65.35
36664;BME280;53333;51.976;20.144;2023-03-26T03:07:57;98835.53;;;8.16;65.45
36664;BME280;53333;51.976;20.144;2023-03-26T03:10:32;98837.25;;;8.17;65.26
36664;BME280;53333;51.976;20.144;2023-03-26T03:13:17;98835.34;;;8.19;65.27
36664;BME280;53333;51.976;20.144;2023-03-26T03:15:51;98837.06;;;8.20;65.10
36664;BME280;53333;51.976;20.144;2023-03-26T03:18:25;98841.41;;;8.21;65.20
36664;BME280;53333;51.976;20.144;2023-03-26T03:20:59;98836.00;;;8.23;65.09
36664;BME280;53333;51.976;20.144;2023-03-26T03:23:32;98831.75;;;8.34;64.71
36664;BME280;53333;51.976;20.144;2023-03-26T03:26:17;98836.75;;;8.25;64.83
36664;BME280;53333;51.976;20.144;2023-03-26T03:28:56;98839.41;;;8.25;64.82
36664;BME280;53333;51.976;20.144;2023-03-26T03:31:30;98833.16;;;8.26;64.66
36664;BME280;53333;51.976;20.144;2023-03-26T03:34:08;98829.47;;;8.28;64.75
36664;BME280;53333;51.976;20.144;2023-03-26T03:36:48;98827.47;;;8.32;64.52
36664;BME280;53333;51.976;20.144;2023-03-26T03:39:33;98837.19;;;8.33;64.40
36664;BME280;53333;51.976;20.144;2023-03-26T03:42:06;98835.28;;;8.35;64.30
36664;BME280;53333;51.976;20.144;2023-03-26T03:44:43;98832.44;;;8.38;64.32
36664;BME280;53333;51.976;20.144;2023-03-26T03:47:36;98827.72;;;8.43;64.15
36664;BME280;53333;51.976;20.144;2023-03-26T03:50:12;98830.28;;;8.45;63.94
36664;BME280;53333;51.976;20.144;2023-03-26T03:52:56;98836.25;;;8.48;63.93
36664;BME280;53333;51.976;20.144;2023-03-26T03:55:30;98827.25;;;8.51;63.69
36664;BME280;53333;51.976;20.144;2023-03-26T03:58:03;98833.41;;;8.51;63.61
36664;BME280;53333;51.976;20.144;2023-03-26T04:00:40;98829.81;;;8.52;63.68
36664;BME280;53333;51.976;20.144;2023-03-26T04:03:38;98829.91;;;8.51;63.57
36664;BME280;53333;51.976;20.144;2023-03-26T04:06:17;98837.78;;;8.52;63.61
36664;BME280;53333;51.976;20.144;2023-03-26T04:08:58;98835.97;;;8.53;63.43
36664;BME280;53333;51.976;20.144;2023-03-26T04:11:31;98838.63;;;8.53;63.37
36664;BME280;53333;51.976;20.144;2023-03-26T04:14:19;98835.88;;;8.54;63.35
36664;BME280;53333;51.976;20.144;2023-03-26T04:17:01;98834.84;;;8.57;63.29
36664;BME280;53333;51.976;20.144;2023-03-26T04:19:38;98833.13;;;8.56;63.29
36664;BME280;53333;51.976;20.144;2023-03-26T04:22:15;98834.94;;;8.56;63.34
36664;BME280;53333;51.976;20.144;2023-03-26T04:24:58;98829.72;;;8.54;63.40
36664;BME280;53333;51.976;20.144;2023-03-26T04:27:36;98825.44;;;8.51;63.31
36664;BME280;53333;51.976;20.144;2023-03-26T04:30:24;98820.94;;;8.52;63.24
36664;BME280;53333;51.976;20.144;2023-03-26T04:33:18;98818.19;;;8.53;63.19
36664;BME280;53333;51.976;20.144;2023-03-26T04:35:51;98814.88;;;8.64;63.05
36664;BME280;53333;51.976;20.144;2023-03-26T04:38:27;98811.00;;;8.56;63.10
36664;BME280;53333;51.976;20.144;2023-03-26T04:41:01;98813.66;;;8.56;63.07
36664;BME280;53333;51.976;20.144;2023-03-26T04:44:01;98810.13;;;8.55;63.02
36664;BME280;53333;51.976;20.144;2023-03-26T04:46:41;98807.47;;;8.55;62.91
36664;BME280;53333;51.976;20.144;2023-03-26T04:49:24;98813.66;;;8.56;63.01
36664;BME280;53333;51.976;20.144;2023-03-26T04:51:57;98811.94;;;8.54;63.05
36664;BME280;53333;51.976;20.144;2023-03-26T04:55:07;98809.19;;;8.56;63.13
36664;BME280;53333;51.976;20.144;2023-03-26T04:57:52;98826.69;;;8.60;62.87
36664;BME280;53333;51.976;20.144;2023-03-26T05:00:46;98822.78;;;8.66;62.74
36664;BME280;53333;51.976;20.144;2023-03-26T05:03:20;98826.97;;;8.70;62.81
36664;BME280;53333;51.976;20.144;2023-03-26T05:05:53;98825.16;;;8.70;62.83
36664;BME280;53333;51.976;20.144;2023-03-26T05:08:26;98822.88;;;8.64;63.54
36664;BME280;53333;51.976;20.144;2023-03-26T05:11:02;98813.94;;;8.51;63.82
36664;BME280;53333;51.976;20.144;2023-03-26T05:13:39;98821.34;;;8.46;64.43
36664;BME280;53333;51.976;20.144;2023-03-26T05:16:16;98821.59;;;8.41;64.64
36664;BME280;53333;51.976;20.144;2023-03-26T05:18:57;98820.91;;;8.37;64.88
36664;BME280;53333;51.976;20.144;2023-03-26T05:21:36;98818.25;;;8.37;65.10
36664;BME280;53333;51.976;20.144;2023-03-26T05:24:09;98824.44;;;8.38;65.27
36664;BME280;53333;51.976;20.144;2023-03-26T05:26:43;98823.47;;;8.39;65.34
36664;BME280;53333;51.976;20.144;2023-03-26T05:29:18;98819.97;;;8.39;65.49
36664;BME280;53333;51.976;20.144;2023-03-26T05:31:56;98813.81;;;8.38;65.54
36664;BME280;53333;51.976;20.144;2023-03-26T05:34:29;98821.03;;;8.36;65.68
36664;BME280;53333;51.976;20.144;2023-03-26T05:37:02;98821.97;;;8.35;65.79
36664;BME280;53333;51.976;20.144;2023-03-26T05:39:52;98812.44;;;8.31;66.08
36664;BME280;53333;51.976;20.144;2023-03-26T05:42:43;98812.53;;;8.29;66.14
36664;BME280;53333;51.976;20.144;2023-03-26T05:45:46;98818.03;;;8.26;66.25
36664;BME280;53333;51.976;20.144;2023-03-26T05:48:28;98815.38;;;8.26;66.46
36664;BME280;53333;51.976;20.144;2023-03-26T05:51:01;98819.69;;;8.29;66.53
36664;BME280;53333;51.976;20.144;2023-03-26T05:53:36;98814.16;;;8.32;66.73
36664;BME280;53333;51.976;20.144;2023-03-26T05:56:27;98817.41;;;8.37;66.85
36664;BME280;53333;51.976;20.144;2023-03-26T05:59:20;98822.38;;;8.43;66.69
36664;BME280;53333;51.976;20.144;2023-03-26T06:02:12;98820.19;;;8.50;66.63
36664;BME280;53333;51.976;20.144;2023-03-26T06:04:45;98819.81;;;8.56;66.58
36664;BME280;53333;51.976;20.144;2023-03-26T06:07:35;98819.25;;;8.65;66.58
36664;BME280;53333;51.976;20.144;2023-03-26T06:10:16;98824.13;;;8.73;66.31
36664;BME280;53333;51.976;20.144;2023-03-26T06:12:50;98832.66;;;8.78;66.22
36664;BME280;53333;51.976;20.144;2023-03-26T06:15:25;98824.78;;;8.77;66.16
36664;BME280;53333;51.976;20.144;2023-03-26T06:18:11;98833.59;;;8.77;66.00
36664;BME280;53333;51.976;20.144;2023-03-26T06:21:04;98834.66;;;8.89;66.02
36664;BME280;53333;51.976;20.144;2023-03-26T06:24:00;98832.16;;;9.15;65.65
36664;BME280;53333;51.976;20.144;2023-03-26T06:27:03;98836.28;;;9.33;65.43
36664;BME280;53333;51.976;20.144;2023-03-26T06:29:36;98833.69;;;9.46;65.17
36664;BME280;53333;51.976;20.144;2023-03-26T06:32:16;98838.50;;;9.54;64.95
36664;BME280;53333;51.976;20.144;2023-03-26T06:35:02;98833.53;;;9.62;64.66
36664;BME280;53333;51.976;20.144;2023-03-26T06:37:35;98828.88;;;9.66;64.53
36664;BME280;53333;51.976;20.144;2023-03-26T06:40:09;98828.03;;;9.78;64.22
36664;BME280;53333;51.976;20.144;2023-03-26T06:42:57;98833.38;;;9.78;64.02
36664;BME280;53333;51.976;20.144;2023-03-26T06:45:53;98825.75;;;9.86;63.90
36664;BME280;53333;51.976;20.144;2023-03-26T06:48:43;98822.00;;;9.89;63.64
36664;BME280;53333;51.976;20.144;2023-03-26T06:51:34;98815.44;;;10.07;63.33
36664;BME280;53333;51.976;20.144;2023-03-26T06:54:09;98819.19;;;10.30;62.87
36664;BME280;53333;51.976;20.144;2023-03-26T06:56:53;98813.25;;;10.52;62.52
36664;BME280;53333;51.976;20.144;2023-03-26T06:59:39;98818.16;;;10.71;62.10
36664;BME280;53333;51.976;20.144;2023-03-26T07:02:30;98821.56;;;10.73;61.70
36664;BME280;53333;51.976;20.144;2023-03-26T07:05:23;98819.88;;;10.72;61.39
36664;BME280;53333;51.976;20.144;2023-03-26T07:08:22;98830.75;;;10.69;60.87
36664;BME280;53333;51.976;20.144;2023-03-26T07:11:32;98828.19;;;10.68;60.65
36664;BME280;53333;51.976;20.144;2023-03-26T07:14:24;98825.63;;;10.66;60.47
36664;BME280;53333;51.976;20.144;2023-03-26T07:17:14;98824.69;;;10.67;60.36
36664;BME280;53333;51.976;20.144;2023-03-26T07:19:58;98819.34;;;10.67;60.29
36664;BME280;53333;51.976;20.144;2023-03-26T07:22:33;98820.72;;;10.73;60.42
36664;BME280;53333;51.976;20.144;2023-03-26T07:25:12;98822.75;;;10.69;60.17
36664;BME280;53333;51.976;20.144;2023-03-26T07:28:10;98810.63;;;10.89;59.80
36664;BME280;53333;51.976;20.144;2023-03-26T07:31:19;98812.44;;;11.02;59.49
36664;BME280;53333;51.976;20.144;2023-03-26T07:34:28;98824.34;;;10.98;59.51
36664;BME280;53333;51.976;20.144;2023-03-26T07:37:31;98816.75;;;10.92;59.34
36664;BME280;53333;51.976;20.144;2023-03-26T07:40:41;98816.44;;;10.96;59.47
36664;BME280;53333;51.976;20.144;2023-03-26T07:43:54;98814.28;;;11.01;59.20
36664;BME280;53333;51.976;20.144;2023-03-26T07:46:56;98814.59;;;10.97;59.23
36664;BME280;53333;51.976;20.144;2023-03-26T07:50:00;98814.50;;;10.98;59.22
36664;BME280;53333;51.976;20.144;2023-03-26T07:53:02;98811.50;;;10.90;59.12
36664;BME280;53333;51.976;20.144;2023-03-26T07:56:11;98807.56;;;10.83;59.19
36664;BME280;53333;51.976;20.144;2023-03-26T07:59:16;98814.84;;;10.81;59.23
36664;BME280;53333;51.976;20.144;2023-03-26T08:02:35;98821.91;;;10.82;59.02
36664;BME280;53333;51.976;20.144;2023-03-26T08:05:32;98812.38;;;10.78;58.84
36664;BME280;53333;51.976;20.144;2023-03-26T08:08:44;98818.78;;;10.75;58.81
36664;BME280;53333;51.976;20.144;2023-03-26T08:11:56;98808.53;;;10.69;58.93
36664;BME280;53333;51.976;20.144;2023-03-26T08:14:40;98807.56;;;10.70;58.78
36664;BME280;53333;51.976;20.144;2023-03-26T08:17:29;98808.66;;;10.80;58.87
36664;BME280;53333;51.976;20.144;2023-03-26T08:20:10;98813.31;;;10.89;58.43
36664;BME280;53333;51.976;20.144;2023-03-26T08:22:49;98810.72;;;11.01;58.01
36664;BME280;53333;51.976;20.144;2023-03-26T08:25:30;98809.47;;;11.31;57.57
36664;BME280;53333;51.976;20.144;2023-03-26T08:28:21;98801.44;;;11.79;56.61
36664;BME280;53333;51.976;20.144;2023-03-26T08:30:58;98800.34;;;11.94;56.17
36664;BME280;53333;51.976;20.144;2023-03-26T08:33:33;98799.03;;;12.00;55.83
36664;BME280;53333;51.976;20.144;2023-03-26T08:36:09;98802.91;;;11.96;55.58
36664;BME280;53333;51.976;20.144;2023-03-26T08:38:42;98813.88;;;11.80;55.93
36664;BME280;53333;51.976;20.144;2023-03-26T08:44:58;98812.88;;;11.45;56.09
36664;BME280;53333;51.976;20.144;2023-03-26T08:51:08;98802.94;;;11.11;56.42
36664;BME280;53333;51.976;20.144;2023-03-26T08:54:06;98809.38;;;10.95;56.59
36664;BME280;53333;51.976;20.144;2023-03-26T08:56:50;98813.13;;;10.80;57.10
36664;BME280;53333;51.976;20.144;2023-03-26T08:59:50;98824.44;;;10.70;57.42
36664;BME280;53333;51.976;20.144;2023-03-26T09:06:12;98816.44;;;10.83;57.62
36664;BME280;53333;51.976;20.144;2023-03-26T09:09:40;98813.19;;;11.89;56.18
36664;BME280;53333;51.976;20.144;2023-03-26T09:18:55;98810.63;;;12.23;54.91
36664;BME280;53333;51.976;20.144;2023-03-26T09:22:08;98800.66;;;13.61;52.46
36664;BME280;53333;51.976;20.144;2023-03-26T09:25:03;98807.59;;;13.52;51.69
36664;BME280;53333;51.976;20.144;2023-03-26T09:28:03;98815.56;;;13.20;52.01
36664;BME280;53333;51.976;20.144;2023-03-26T09:30:51;98804.56;;;14.10;50.29
36664;BME280;53333;51.976;20.144;2023-03-26T09:33:53;98802.72;;;14.53;49.63
36664;BME280;53333;51.976;20.144;2023-03-26T09:36:37;98798.31;;;15.04;48.38
36664;BME280;53333;51.976;20.144;2023-03-26T09:39:16;98800.50;;;15.30;47.60
36664;BME280;53333;51.976;20.144;2023-03-26T09:42:07;98795.75;;;15.02;47.71
36664;BME280;53333;51.976;20.144;2023-03-26T09:45:03;98803.16;;;15.70;46.74
36664;BME280;53333;51.976;20.144;2023-03-26T09:51:16;98789.31;;;15.85;45.60
36664;BME280;53333;51.976;20.144;2023-03-26T09:57:26;98793.91;;;14.62;46.03
36664;BME280;53333;51.976;20.144;2023-03-26T10:00:07;98795.91;;;14.07;47.17
36664;BME280;53333;51.976;20.144;2023-03-26T10:02:59;98792.38;;;13.85;46.95
36664;BME280;53333;51.976;20.144;2023-03-26T10:05:46;98800.31;;;13.87;47.47
36664;BME280;53333;51.976;20.144;2023-03-26T10:08:33;98786.81;;;14.19;46.54
36664;BME280;53333;51.976;20.144;2023-03-26T10:11:15;98787.28;;;14.03;46.63
36664;BME280;53333;51.976;20.144;2023-03-26T10:13:57;98785.06;;;14.08;46.75
36664;BME280;53333;51.976;20.144;2023-03-26T10:16:40;98778.69;;;14.30;46.66
36664;BME280;53333;51.976;20.144;2023-03-26T10:19:25;98781.16;;;14.64;46.11
36664;BME280;53333;51.976;20.144;2023-03-26T10:22:09;98773.94;;;15.46;45.00
36664;BME280;53333;51.976;20.144;2023-03-26T10:25:00;98792.81;;;15.95;43.99
36664;BME280;53333;51.976;20.144;2023-03-26T10:27:45;98783.19;;;16.12;43.29
36664;BME280;53333;51.976;20.144;2023-03-26T10:33:38;98779.69;;;16.59;42.50
36664;BME280;53333;51.976;20.144;2023-03-26T10:36:26;98775.88;;;17.27;41.06
36664;BME280;53333;51.976;20.144;2023-03-26T10:39:37;98771.03;;;17.02;41.31
36664;BME280;53333;51.976;20.144;2023-03-26T10:42:40;98777.34;;;16.26;42.46
36664;BME280;53333;51.976;20.144;2023-03-26T10:45:30;98776.38;;;15.59;43.23
36664;BME280;53333;51.976;20.144;2023-03-26T10:48:18;98784.63;;;15.17;43.55
36664;BME280;53333;51.976;20.144;2023-03-26T10:54:14;98779.00;;;14.37;45.02
36664;BME280;53333;51.976;20.144;2023-03-26T10:56:54;98775.97;;;13.99;45.63
36664;BME280;53333;51.976;20.144;2023-03-26T10:59:30;98774.88;;;13.70;46.34
36664;BME280;53333;51.976;20.144;2023-03-26T11:02:21;98775.78;;;13.48;46.77
36664;BME280;53333;51.976;20.144;2023-03-26T11:05:18;98779.97;;;13.29;47.32
36664;BME280;53333;51.976;20.144;2023-03-26T11:07:57;98780.38;;;13.13;47.64
36664;BME280;53333;51.976;20.144;2023-03-26T11:10:41;98777.19;;;12.97;48.15
36664;BME280;53333;51.976;20.144;2023-03-26T11:13:24;98779.06;;;12.85;48.32
36664;BME280;53333;51.976;20.144;2023-03-26T11:16:04;98770.91;;;12.75;48.21
36664;BME280;53333;51.976;20.144;2023-03-26T11:18:47;98780.03;;;12.61;48.38
36664;BME280;53333;51.976;20.144;2023-03-26T11:21:26;98781.56;;;12.41;48.89
36664;BME280;53333;51.976;20.144;2023-03-26T11:24:37;98786.53;;;12.23;49.26
36664;BME280;53333;51.976;20.144;2023-03-26T11:27:20;98792.34;;;12.06;50.47
36664;BME280;53333;51.976;20.144;2023-03-26T11:30:05;98800.94;;;11.98;51.39
36664;BME280;53333;51.976;20.144;2023-03-26T11:32:52;98802.16;;;11.94;51.58
36664;BME280;53333;51.976;20.144;2023-03-26T11:35:28;98799.25;;;12.44;51.85
36664;BME280;53333;51.976;20.144;2023-03-26T11:38:18;98801.94;;;12.89;50.67
36664;BME280;53333;51.976;20.144;2023-03-26T11:40:55;98806.66;;;13.31;50.24
36664;BME280;53333;51.976;20.144;2023-03-26T11:43:52;98794.56;;;13.48;49.23
36664;BME280;53333;51.976;20.144;2023-03-26T11:46:29;98791.91;;;14.64;47.35
36664;BME280;53333;51.976;20.144;2023-03-26T11:49:08;98783.34;;;15.91;44.87
36664;BME280;53333;51.976;20.144;2023-03-26T11:51:45;98782.09;;;17.73;41.98
36664;BME280;53333;51.976;20.144;2023-03-26T11:54:19;98789.84;;;17.40;42.64
36664;BME280;53333;51.976;20.144;2023-03-26T11:56:57;98785.28;;;16.85;42.74
36664;BME280;53333;51.976;20.144;2023-03-26T11:59:41;98792.53;;;15.98;44.01
36664;BME280;53333;51.976;20.144;2023-03-26T12:02:37;98783.69;;;15.37;44.75
36664;BME280;53333;51.976;20.144;2023-03-26T12:05:18;98777.63;;;16.33;43.33
36664;BME280;53333;51.976;20.144;2023-03-26T12:07:54;98761.03;;;17.76;41.64
36664;BME280;53333;51.976;20.144;2023-03-26T12:10:33;98768.25;;;19.17;38.72
36664;BME280;53333;51.976;20.144;2023-03-26T12:13:34;98753.34;;;20.38;37.30
36664;BME280;53333;51.976;20.144;2023-03-26T12:16:17;98756.88;;;19.64;37.58
36664;BME280;53333;51.976;20.144;2023-03-26T12:19:00;98768.81;;;18.86;38.66
36664;BME280;53333;51.976;20.144;2023-03-26T12:24:42;98796.00;;;17.04;40.65
36664;BME280;53333;51.976;20.144;2023-03-26T12:27:22;98797.63;;;16.21;42.59
36664;BME280;53333;51.976;20.144;2023-03-26T12:30:09;98827.25;;;15.21;44.49
36664;BME280;53333;51.976;20.144;2023-03-26T12:32:47;98825.72;;;14.25;46.74
36664;BME280;53333;51.976;20.144;2023-03-26T12:35:26;98824.22;;;13.35;48.55
36664;BME280;53333;51.976;20.144;2023-03-26T12:38:22;98808.00;;;12.46;50.12
36664;BME280;53333;51.976;20.144;2023-03-26T12:41:06;98801.00;;;11.85;51.60
36664;BME280;53333;51.976;20.144;2023-03-26T12:44:20;98789.53;;;11.48;52.65
36664;BME280;53333;51.976;20.144;2023-03-26T12:47:18;98792.13;;;11.85;53.40
36664;BME280;53333;51.976;20.144;2023-03-26T12:50:12;98792.28;;;12.41;52.87
36664;BME280;53333;51.976;20.144;2023-03-26T12:53:00;98785.72;;;13.02;51.88
36664;BME280;53333;51.976;20.144;2023-03-26T12:55:39;98774.81;;;13.49;51.94
36664;BME280;53333;51.976;20.144;2023-03-26T13:01:22;98773.00;;;14.24;49.75
36664;BME280;53333;51.976;20.144;2023-03-26T13:04:28;98773.31;;;14.30;49.61
36664;BME280;53333;51.976;20.144;2023-03-26T13:07:14;98773.72;;;14.26;49.82
36664;BME280;53333;51.976;20.144;2023-03-26T13:12:54;98759.75;;;14.32;49.24
36664;BME280;53333;51.976;20.144;2023-03-26T13:15:34;98771.75;;;14.28;48.67
36664;BME280;53333;51.976;20.144;2023-03-26T13:18:21;98767.91;;;14.21;48.50
36664;BME280;53333;51.976;20.144;2023-03-26T13:21:01;98757.09;;;14.11;48.48
36664;BME280;53333;51.976;20.144;2023-03-26T13:23:47;98764.84;;;14.04;48.58
36664;BME280;53333;51.976;20.144;2023-03-26T13:26:33;98764.53;;;13.86;48.67
36664;BME280;53333;51.976;20.144;2023-03-26T13:31:54;98763.75;;;13.42;49.03
36664;BME280;53333;51.976;20.144;2023-03-26T13:34:48;98763.75;;;13.42;49.12
36664;BME280;53333;51.976;20.144;2023-03-26T13:37:31;98765.31;;;13.44;48.87
36664;BME280;53333;51.976;20.144;2023-03-26T13:40:23;98764.34;;;13.46;49.03
36664;BME280;53333;51.976;20.144;2023-03-26T13:43:20;98758.59;;;13.50;48.70
36664;BME280;53333;51.976;20.144;2023-03-26T13:45:58;98765.66;;;13.51;48.73
36664;BME280;53333;51.976;20.144;2023-03-26T13:48:36;98762.22;;;13.60;48.73
36664;BME280;53333;51.976;20.144;2023-03-26T13:51:16;98761.56;;;13.68;48.65
36664;BME280;53333;51.976;20.144;2023-03-26T13:53:54;98758.63;;;13.71;48.85
36664;BME280;53333;51.976;20.144;2023-03-26T13:56:32;98762.28;;;13.70;49.45
36664;BME280;53333;51.976;20.144;2023-03-26T13:59:11;98760.94;;;13.76;50.04
36664;BME280;53333;51.976;20.144;2023-03-26T14:01:49;98756.63;;;13.85;50.21
36664;BME280;53333;51.976;20.144;2023-03-26T14:04:27;98754.63;;;13.98;50.48
36664;BME280;53333;51.976;20.144;2023-03-26T14:07:08;98755.78;;;14.05;50.35
36664;BME280;53333;51.976;20.144;2023-03-26T14:09:50;98755.66;;;14.07;50.11
36664;BME280;53333;51.976;20.144;2023-03-26T14:12:41;98750.72;;;14.12;50.14
36664;BME280;53333;51.976;20.144;2023-03-26T14:15:26;98747.59;;;14.07;49.75
36664;BME280;53333;51.976;20.144;2023-03-26T14:18:10;98741.91;;;14.00;49.74
36664;BME280;53333;51.976;20.144;2023-03-26T14:24:16;98732.91;;;13.69;49.92
36664;BME280;53333;51.976;20.144;2023-03-26T14:27:04;98738.00;;;13.51;50.06
36664;BME280;53333;51.976;20.144;2023-03-26T14:29:51;98736.06;;;13.41;50.17
36664;BME280;53333;51.976;20.144;2023-03-26T14:32:43;98746.09;;;13.28;49.87
36664;BME280;53333;51.976;20.144;2023-03-26T14:35:32;98738.19;;;13.15;49.89
36664;BME280;53333;51.976;20.144;2023-03-26T14:41:22;98746.78;;;12.86;49.67
36664;BME280;53333;51.976;20.144;2023-03-26T14:47:22;98745.91;;;12.75;50.07
36664;BME280;53333;51.976;20.144;2023-03-26T14:53:17;98744.72;;;12.56;50.09
36664;BME280;53333;51.976;20.144;2023-03-26T14:56:35;98744.47;;;12.59;49.89
36664;BME280;53333;51.976;20.144;2023-03-26T15:06:12;98753.59;;;12.57;49.54
36664;BME280;53333;51.976;20.144;2023-03-26T15:12:36;98750.56;;;12.61;49.56
36664;BME280;53333;51.976;20.144;2023-03-26T15:18:49;98748.13;;;12.69;49.33
36664;BME280;53333;51.976;20.144;2023-03-26T15:21:52;98744.84;;;12.66;49.46
36664;BME280;53333;51.976;20.144;2023-03-26T15:28:15;98751.41;;;12.62;49.48
36664;BME280;53333;51.976;20.144;2023-03-26T15:31:21;98743.59;;;12.59;49.48
36664;BME280;53333;51.976;20.144;2023-03-26T15:40:30;98751.28;;;12.52;49.44
36664;BME280;53333;51.976;20.144;2023-03-26T15:43:12;98748.00;;;12.48;49.03
36664;BME280;53333;51.976;20.144;2023-03-26T15:45:49;98745.56;;;12.45;49.41